createdAt,value
2023-04-28T00:01:09.665Z,5.30
2023-04-28T00:16:10.113Z,7.00
2023-04-28T00:31:10.743Z,7.80
2023-04-28T00:46:15.343Z,8.00
2023-04-28T01:01:16.372Z,6.80
2023-04-28T01:16:16.467Z,6.10
2023-04-28T01:31:16.679Z,7.50
2023-04-28T01:46:16.958Z,6.60
2023-04-28T02:01:17.197Z,6.00
2023-04-28T02:16:17.158Z,6.60
2023-04-28T02:31:17.490Z,6.40
2023-04-28T02:46:17.585Z,7.30
2023-04-28T03:01:17.772Z,7.20
2023-04-28T03:16:17.929Z,7.90
2023-04-28T03:31:18.044Z,8.00
2023-04-28T03:46:18.861Z,999.90
2023-04-28T04:01:18.927Z,798.70
2023-04-28T04:16:19.219Z,456.00
2023-04-28T04:31:19.735Z,422.80
2023-04-28T04:46:20.048Z,646.00
2023-04-28T05:01:20.224Z,208.90
2023-04-28T05:16:20.433Z,696.20
2023-04-28T05:31:20.639Z,115.30
2023-04-28T05:46:30.182Z,461.80
2023-04-28T06:01:26.470Z,311.20
2023-04-28T06:16:26.457Z,142.30
2023-04-28T06:31:26.608Z,509.60
2023-04-28T06:46:26.940Z,67.40
2023-04-28T07:01:27.234Z,6.60
2023-04-28T07:16:27.420Z,2.50
2023-04-28T07:31:27.369Z,3.00
2023-04-28T07:46:28.012Z,2.30
2023-04-28T08:01:28.654Z,2.40
2023-04-28T08:16:29.120Z,2.50
2023-04-28T08:31:29.938Z,2.80
2023-04-28T08:46:29.994Z,2.80
2023-04-28T09:01:30.236Z,3.50
2023-04-28T09:16:30.118Z,3.20
2023-04-28T09:31:30.764Z,2.80
2023-04-28T09:46:31.599Z,4.00
2023-04-28T10:01:31.689Z,4.00
2023-04-28T10:16:32.173Z,4.00
2023-04-28T10:31:32.651Z,4.50
2023-04-28T10:46:33.064Z,4.50
2023-04-28T11:01:33.237Z,4.80
2023-04-28T11:16:33.074Z,5.00
2023-04-28T11:31:33.268Z,4.90
2023-04-28T11:46:34.571Z,4.50
2023-04-28T12:01:34.865Z,4.00
2023-04-28T12:16:34.813Z,4.70
2023-04-28T12:31:35.190Z,4.80
2023-04-28T12:46:36.425Z,4.20
2023-04-28T13:01:36.270Z,4.80
2023-04-28T13:16:36.696Z,5.10
2023-04-28T13:31:36.852Z,4.40
2023-04-28T13:46:37.040Z,11.30
2023-04-28T14:01:37.516Z,92.10
2023-04-28T14:16:37.555Z,94.80
2023-04-28T14:31:37.695Z,73.30
2023-04-28T14:46:38.193Z,80.60
2023-04-28T15:01:39.176Z,90.40
2023-04-28T15:16:39.292Z,99.00
2023-04-28T15:31:39.638Z,100.90
2023-04-28T15:46:39.818Z,86.40
2023-04-28T16:01:39.907Z,56.80
2023-04-28T16:16:40.123Z,9.40
2023-04-28T16:31:40.341Z,11.20
2023-04-28T16:46:40.266Z,11.30
2023-04-28T17:01:40.369Z,12.10
2023-04-28T17:16:40.403Z,11.10
2023-04-28T17:31:40.717Z,12.50
2023-04-28T17:46:41.269Z,13.90
2023-04-28T18:01:41.608Z,25.40
2023-04-28T18:16:41.972Z,14.30
2023-04-28T18:31:43.045Z,10.70
2023-04-28T18:46:43.147Z,10.50
2023-04-28T19:01:43.031Z,9.40
2023-04-28T19:16:43.421Z,8.80
2023-04-28T19:31:43.855Z,9.30
2023-04-28T19:46:46.277Z,11.30
2023-04-28T20:01:47.387Z,9.60
2023-04-28T20:16:47.668Z,10.50
2023-04-28T20:31:48.421Z,9.10
2023-04-28T20:46:49.224Z,8.60
2023-04-28T21:01:49.462Z,8.50
2023-04-28T21:16:49.506Z,8.90
2023-04-28T21:31:49.924Z,6.90
2023-04-28T21:46:50.031Z,7.00
2023-04-28T22:01:50.124Z,7.30
2023-04-28T22:16:50.355Z,8.00
2023-04-28T22:31:50.396Z,7.40
2023-04-28T22:46:50.675Z,7.40
2023-04-28T23:01:50.790Z,7.10
2023-04-28T23:16:50.846Z,7.50
2023-04-28T23:31:51.106Z,7.60
2023-04-28T23:46:51.164Z,7.30
